sensor_id;sensor_type;location;lat;lon;timestamp;P1;durP1;ratioP1;P2;durP2;ratioP2
49051;SDS011;34866;48.670;18.260;2023-02-18T00:00:15;84.93;;;32.88;;
49051;SDS011;34866;48.670;18.260;2023-02-18T00:02:43;83.90;;;34.10;;
49051;SDS011;34866;48.670;18.260;2023-02-18T00:05:09;83.40;;;34.80;;
49051;SDS011;34866;48.670;18.260;2023-02-18T00:07:36;74.18;;;33.50;;
49051;SDS011;34866;48.670;18.260;2023-02-18T00:10:03;72.38;;;31.08;;
49051;SDS011;34866;48.670;18.260;2023-02-18T00:12:29;73.60;;;32.72;;
49051;SDS011;34866;48.670;18.260;2023-02-18T00:14:55;80.22;;;33.67;;
49051;SDS011;34866;48.670;18.260;2023-02-18T00:17:21;72.45;;;31.23;;
49051;SDS011;34866;48.670;18.260;2023-02-18T00:19:47;63.92;;;28.45;;
49051;SDS011;34866;48.670;18.260;2023-02-18T00:22:13;70.72;;;31.63;;
49051;SDS011;34866;48.670;18.260;2023-02-18T00:24:39;63.95;;;27.00;;
49051;SDS011;34866;48.670;18.260;2023-02-18T00:27:05;57.17;;;28.40;;
49051;SDS011;34866;48.670;18.260;2023-02-18T00:29:31;73.55;;;28.13;;
49051;SDS011;34866;48.670;18.260;2023-02-18T00:31:57;68.88;;;29.05;;
49051;SDS011;34866;48.670;18.260;2023-02-18T00:34:22;74.55;;;27.58;;
49051;SDS011;34866;48.670;18.260;2023-02-18T00:36:57;65.05;;;26.10;;
49051;SDS011;34866;48.670;18.260;2023-02-18T00:39:22;66.20;;;27.83;;
49051;SDS011;34866;48.670;18.260;2023-02-18T00:42:02;73.75;;;29.05;;
49051;SDS011;34866;48.670;18.260;2023-02-18T00:44:27;63.80;;;29.25;;
49051;SDS011;34866;48.670;18.260;2023-02-18T00:46:53;59.25;;;24.10;;
49051;SDS011;34866;48.670;18.260;2023-02-18T00:49:19;54.75;;;23.92;;
49051;SDS011;34866;48.670;18.260;2023-02-18T00:51:45;54.58;;;23.83;;
49051;SDS011;34866;48.670;18.260;2023-02-18T00:54:11;48.47;;;20.92;;
49051;SDS011;34866;48.670;18.260;2023-02-18T00:56:37;49.83;;;22.45;;
49051;SDS011;34866;48.670;18.260;2023-02-18T00:59:03;43.17;;;18.17;;
49051;SDS011;34866;48.670;18.260;2023-02-18T01:01:28;34.20;;;15.10;;
49051;SDS011;34866;48.670;18.260;2023-02-18T01:03:54;26.10;;;12.50;;
49051;SDS011;34866;48.670;18.260;2023-02-18T01:06:21;31.15;;;13.38;;
49051;SDS011;34866;48.670;18.260;2023-02-18T01:08:47;28.55;;;11.45;;
49051;SDS011;34866;48.670;18.260;2023-02-18T01:11:13;27.45;;;12.00;;
49051;SDS011;34866;48.670;18.260;2023-02-18T01:13:39;19.70;;;9.75;;
49051;SDS011;34866;48.670;18.260;2023-02-18T01:16:05;22.55;;;10.77;;
49051;SDS011;34866;48.670;18.260;2023-02-18T01:18:31;18.52;;;8.30;;
49051;SDS011;34866;48.670;18.260;2023-02-18T01:20:57;18.58;;;8.18;;
49051;SDS011;34866;48.670;18.260;2023-02-18T01:23:23;20.42;;;7.70;;
49051;SDS011;34866;48.670;18.260;2023-02-18T01:25:49;125.97;;;52.30;;
49051;SDS011;34866;48.670;18.260;2023-02-18T01:28:16;43.03;;;22.45;;
49051;SDS011;34866;48.670;18.260;2023-02-18T01:30:43;30.58;;;13.85;;
49051;SDS011;34866;48.670;18.260;2023-02-18T01:33:09;22.30;;;11.07;;
49051;SDS011;34866;48.670;18.260;2023-02-18T01:35:36;16.23;;;7.68;;
49051;SDS011;34866;48.670;18.260;2023-02-18T01:38:05;12.90;;;6.47;;
49051;SDS011;34866;48.670;18.260;2023-02-18T01:40:31;13.25;;;5.72;;
49051;SDS011;34866;48.670;18.260;2023-02-18T01:42:57;8.93;;;4.90;;
49051;SDS011;34866;48.670;18.260;2023-02-18T01:50:30;10.77;;;4.78;;
49051;SDS011;34866;48.670;18.260;2023-02-18T01:52:59;9.25;;;4.38;;
49051;SDS011;34866;48.670;18.260;2023-02-18T01:55:26;11.93;;;5.53;;
49051;SDS011;34866;48.670;18.260;2023-02-18T01:57:52;13.18;;;3.75;;
49051;SDS011;34866;48.670;18.260;2023-02-18T02:00:18;8.10;;;3.92;;
49051;SDS011;34866;48.670;18.260;2023-02-18T02:02:51;8.63;;;3.92;;
49051;SDS011;34866;48.670;18.260;2023-02-18T02:05:18;7.43;;;3.55;;
49051;SDS011;34866;48.670;18.260;2023-02-18T02:07:46;5.95;;;2.80;;
49051;SDS011;34866;48.670;18.260;2023-02-18T02:10:15;9.80;;;3.45;;
49051;SDS011;34866;48.670;18.260;2023-02-18T02:18:42;6.45;;;3.20;;
49051;SDS011;34866;48.670;18.260;2023-02-18T02:27:34;4.55;;;2.15;;
49051;SDS011;34866;48.670;18.260;2023-02-18T02:39:33;10.32;;;4.32;;
49051;SDS011;34866;48.670;18.260;2023-02-18T02:42:12;8.73;;;4.45;;
49051;SDS011;34866;48.670;18.260;2023-02-18T02:44:43;9.65;;;4.13;;
49051;SDS011;34866;48.670;18.260;2023-02-18T02:47:32;11.10;;;5.97;;
49051;SDS011;34866;48.670;18.260;2023-02-18T02:52:27;9.10;;;3.65;;
49051;SDS011;34866;48.670;18.260;2023-02-18T02:54:56;9.00;;;3.53;;
49051;SDS011;34866;48.670;18.260;2023-02-18T02:59:49;6.80;;;3.15;;
49051;SDS011;34866;48.670;18.260;2023-02-18T03:11:10;5.32;;;2.33;;
49051;SDS011;34866;48.670;18.260;2023-02-18T03:16:45;5.07;;;2.53;;
49051;SDS011;34866;48.670;18.260;2023-02-18T03:21:49;4.88;;;2.17;;
49051;SDS011;34866;48.670;18.260;2023-02-18T03:24:22;6.93;;;2.25;;
49051;SDS011;34866;48.670;18.260;2023-02-18T03:26:52;4.43;;;1.95;;
49051;SDS011;34866;48.670;18.260;2023-02-18T03:29:21;8.60;;;2.83;;
49051;SDS011;34866;48.670;18.260;2023-02-18T03:31:48;5.95;;;2.40;;
49051;SDS011;34866;48.670;18.260;2023-02-18T03:34:21;7.57;;;2.50;;
49051;SDS011;34866;48.670;18.260;2023-02-18T03:36:53;6.20;;;2.42;;
49051;SDS011;34866;48.670;18.260;2023-02-18T03:39:20;9.38;;;2.50;;
49051;SDS011;34866;48.670;18.260;2023-02-18T03:41:49;4.50;;;2.20;;
49051;SDS011;34866;48.670;18.260;2023-02-18T03:44:15;4.72;;;1.70;;
49051;SDS011;34866;48.670;18.260;2023-02-18T03:46:42;5.35;;;2.63;;
49051;SDS011;34866;48.670;18.260;2023-02-18T03:49:12;9.40;;;2.47;;
49051;SDS011;34866;48.670;18.260;2023-02-18T03:51:39;9.50;;;2.50;;
49051;SDS011;34866;48.670;18.260;2023-02-18T03:54:06;4.55;;;2.40;;
49051;SDS011;34866;48.670;18.260;2023-02-18T03:56:33;6.88;;;2.50;;
49051;SDS011;34866;48.670;18.260;2023-02-18T04:01:58;5.40;;;2.60;;
49051;SDS011;34866;48.670;18.260;2023-02-18T04:04:24;6.07;;;2.38;;
49051;SDS011;34866;48.670;18.260;2023-02-18T04:06:50;6.07;;;2.13;;
49051;SDS011;34866;48.670;18.260;2023-02-18T04:09:16;7.28;;;2.95;;
49051;SDS011;34866;48.670;18.260;2023-02-18T04:11:42;4.32;;;1.90;;
49051;SDS011;34866;48.670;18.260;2023-02-18T04:14:08;4.50;;;2.10;;
49051;SDS011;34866;48.670;18.260;2023-02-18T04:16:37;4.30;;;1.90;;
49051;SDS011;34866;48.670;18.260;2023-02-18T04:19:02;4.97;;;2.53;;
49051;SDS011;34866;48.670;18.260;2023-02-18T04:21:29;7.15;;;2.90;;
49051;SDS011;34866;48.670;18.260;2023-02-18T04:23:54;4.38;;;2.33;;
49051;SDS011;34866;48.670;18.260;2023-02-18T04:26:20;4.78;;;2.53;;
49051;SDS011;34866;48.670;18.260;2023-02-18T04:28:46;9.25;;;2.63;;
49051;SDS011;34866;48.670;18.260;2023-02-18T04:31:12;6.45;;;2.00;;
49051;SDS011;34866;48.670;18.260;2023-02-18T04:33:39;7.43;;;2.45;;
49051;SDS011;34866;48.670;18.260;2023-02-18T04:36:05;5.03;;;2.55;;
49051;SDS011;34866;48.670;18.260;2023-02-18T04:38:31;4.60;;;2.45;;
49051;SDS011;34866;48.670;18.260;2023-02-18T04:40:57;5.00;;;2.33;;
49051;SDS011;34866;48.670;18.260;2023-02-18T04:43:23;9.27;;;2.55;;
49051;SDS011;34866;48.670;18.260;2023-02-18T04:45:49;4.55;;;2.10;;
49051;SDS011;34866;48.670;18.260;2023-02-18T04:48:15;5.15;;;2.10;;
49051;SDS011;34866;48.670;18.260;2023-02-18T04:50:43;6.90;;;2.67;;
49051;SDS011;34866;48.670;18.260;2023-02-18T04:53:09;5.00;;;2.55;;
49051;SDS011;34866;48.670;18.260;2023-02-18T04:55:35;6.38;;;2.70;;
49051;SDS011;34866;48.670;18.260;2023-02-18T04:58:00;4.93;;;1.98;;
49051;SDS011;34866;48.670;18.260;2023-02-18T05:00:26;4.93;;;2.30;;
49051;SDS011;34866;48.670;18.260;2023-02-18T05:02:53;4.97;;;2.55;;
49051;SDS011;34866;48.670;18.260;2023-02-18T05:05:19;6.32;;;2.42;;
49051;SDS011;34866;48.670;18.260;2023-02-18T05:07:44;5.35;;;2.65;;
49051;SDS011;34866;48.670;18.260;2023-02-18T05:10:10;4.93;;;2.00;;
49051;SDS011;34866;48.670;18.260;2023-02-18T05:12:41;5.68;;;2.63;;
49051;SDS011;34866;48.670;18.260;2023-02-18T05:15:08;4.65;;;2.58;;
49051;SDS011;34866;48.670;18.260;2023-02-18T05:17:34;6.70;;;2.38;;
49051;SDS011;34866;48.670;18.260;2023-02-18T05:20:00;7.07;;;2.38;;
49051;SDS011;34866;48.670;18.260;2023-02-18T05:22:26;5.75;;;3.03;;
49051;SDS011;34866;48.670;18.260;2023-02-18T05:24:51;6.85;;;3.22;;
49051;SDS011;34866;48.670;18.260;2023-02-18T05:27:17;10.23;;;4.20;;
49051;SDS011;34866;48.670;18.260;2023-02-18T05:29:43;9.10;;;3.17;;
49051;SDS011;34866;48.670;18.260;2023-02-18T05:32:09;6.30;;;3.25;;
49051;SDS011;34866;48.670;18.260;2023-02-18T05:34:34;9.18;;;3.05;;
49051;SDS011;34866;48.670;18.260;2023-02-18T05:37:01;8.52;;;3.92;;
49051;SDS011;34866;48.670;18.260;2023-02-18T05:39:27;11.60;;;5.93;;
49051;SDS011;34866;48.670;18.260;2023-02-18T05:41:53;10.93;;;6.20;;
49051;SDS011;34866;48.670;18.260;2023-02-18T05:44:19;10.07;;;4.43;;
49051;SDS011;34866;48.670;18.260;2023-02-18T05:47:01;6.38;;;3.30;;
49051;SDS011;34866;48.670;18.260;2023-02-18T05:49:32;5.15;;;2.53;;
49051;SDS011;34866;48.670;18.260;2023-02-18T05:51:58;8.90;;;2.67;;
49051;SDS011;34866;48.670;18.260;2023-02-18T05:54:25;6.20;;;3.15;;
49051;SDS011;34866;48.670;18.260;2023-02-18T05:56:51;9.13;;;3.72;;
49051;SDS011;34866;48.670;18.260;2023-02-18T05:59:19;3.90;;;1.98;;
49051;SDS011;34866;48.670;18.260;2023-02-18T06:01:46;4.82;;;2.17;;
49051;SDS011;34866;48.670;18.260;2023-02-18T06:04:12;6.65;;;2.88;;
49051;SDS011;34866;48.670;18.260;2023-02-18T06:06:38;8.23;;;3.88;;
49051;SDS011;34866;48.670;18.260;2023-02-18T06:09:05;6.50;;;3.45;;
49051;SDS011;34866;48.670;18.260;2023-02-18T06:11:31;13.20;;;3.40;;
49051;SDS011;34866;48.670;18.260;2023-02-18T06:13:57;4.95;;;2.53;;
49051;SDS011;34866;48.670;18.260;2023-02-18T06:16:23;7.57;;;2.42;;
49051;SDS011;34866;48.670;18.260;2023-02-18T06:18:49;8.35;;;3.50;;
49051;SDS011;34866;48.670;18.260;2023-02-18T06:21:15;6.93;;;3.80;;
49051;SDS011;34866;48.670;18.260;2023-02-18T06:23:55;11.48;;;4.22;;
49051;SDS011;34866;48.670;18.260;2023-02-18T06:26:22;8.50;;;4.03;;
49051;SDS011;34866;48.670;18.260;2023-02-18T06:28:48;9.70;;;4.13;;
49051;SDS011;34866;48.670;18.260;2023-02-18T06:31:14;10.35;;;4.63;;
49051;SDS011;34866;48.670;18.260;2023-02-18T06:33:40;7.93;;;3.63;;
49051;SDS011;34866;48.670;18.260;2023-02-18T06:36:07;7.07;;;3.58;;
49051;SDS011;34866;48.670;18.260;2023-02-18T06:38:35;15.25;;;5.22;;
49051;SDS011;34866;48.670;18.260;2023-02-18T06:41:05;12.27;;;4.15;;
49051;SDS011;34866;48.670;18.260;2023-02-18T06:55:19;12.40;;;6.43;;
49051;SDS011;34866;48.670;18.260;2023-02-18T06:57:44;11.27;;;5.68;;
49051;SDS011;34866;48.670;18.260;2023-02-18T07:00:10;15.68;;;6.88;;
49051;SDS011;34866;48.670;18.260;2023-02-18T07:02:42;11.80;;;5.80;;
49051;SDS011;34866;48.670;18.260;2023-02-18T07:05:08;7.05;;;3.90;;
49051;SDS011;34866;48.670;18.260;2023-02-18T07:07:34;7.22;;;3.45;;
49051;SDS011;34866;48.670;18.260;2023-02-18T07:10:03;6.97;;;3.35;;
49051;SDS011;34866;48.670;18.260;2023-02-18T07:12:29;9.52;;;3.95;;
49051;SDS011;34866;48.670;18.260;2023-02-18T07:14:54;6.43;;;2.83;;
49051;SDS011;34866;48.670;18.260;2023-02-18T07:17:20;6.85;;;3.17;;
49051;SDS011;34866;48.670;18.260;2023-02-18T07:19:46;7.18;;;2.90;;
49051;SDS011;34866;48.670;18.260;2023-02-18T07:22:11;5.95;;;2.90;;
49051;SDS011;34866;48.670;18.260;2023-02-18T07:24:37;4.65;;;2.40;;
49051;SDS011;34866;48.670;18.260;2023-02-18T07:27:03;7.80;;;3.50;;
49051;SDS011;34866;48.670;18.260;2023-02-18T07:29:35;6.15;;;2.83;;
49051;SDS011;34866;48.670;18.260;2023-02-18T07:32:00;6.85;;;3.50;;
49051;SDS011;34866;48.670;18.260;2023-02-18T07:34:26;6.78;;;2.47;;
49051;SDS011;34866;48.670;18.260;2023-02-18T07:36:53;4.88;;;2.78;;
49051;SDS011;34866;48.670;18.260;2023-02-18T07:39:23;8.30;;;2.65;;
49051;SDS011;34866;48.670;18.260;2023-02-18T07:41:52;7.45;;;2.75;;
49051;SDS011;34866;48.670;18.260;2023-02-18T07:44:24;7.20;;;2.97;;
49051;SDS011;34866;48.670;18.260;2023-02-18T07:46:51;6.72;;;3.13;;
49051;SDS011;34866;48.670;18.260;2023-02-18T07:49:17;11.00;;;3.53;;
49051;SDS011;34866;48.670;18.260;2023-02-18T07:51:45;7.53;;;3.22;;
49051;SDS011;34866;48.670;18.260;2023-02-18T07:54:12;6.68;;;2.92;;
49051;SDS011;34866;48.670;18.260;2023-02-18T07:56:38;4.85;;;2.70;;
49051;SDS011;34866;48.670;18.260;2023-02-18T07:59:04;5.47;;;2.65;;
49051;SDS011;34866;48.670;18.260;2023-02-18T08:01:29;5.93;;;2.78;;
49051;SDS011;34866;48.670;18.260;2023-02-18T08:03:55;6.60;;;3.47;;
49051;SDS011;34866;48.670;18.260;2023-02-18T08:06:24;11.60;;;2.67;;
49051;SDS011;34866;48.670;18.260;2023-02-18T08:08:54;8.68;;;2.13;;
49051;SDS011;34866;48.670;18.260;2023-02-18T08:11:20;4.32;;;2.30;;
49051;SDS011;34866;48.670;18.260;2023-02-18T08:13:46;4.13;;;2.15;;
49051;SDS011;34866;48.670;18.260;2023-02-18T08:16:17;3.83;;;1.70;;
49051;SDS011;34866;48.670;18.260;2023-02-18T08:18:44;3.63;;;1.73;;
49051;SDS011;34866;48.670;18.260;2023-02-18T08:21:12;2.92;;;1.45;;
49051;SDS011;34866;48.670;18.260;2023-02-18T08:23:38;3.33;;;1.58;;
49051;SDS011;34866;48.670;18.260;2023-02-18T08:26:04;3.88;;;2.03;;
49051;SDS011;34866;48.670;18.260;2023-02-18T08:28:30;4.75;;;2.25;;
49051;SDS011;34866;48.670;18.260;2023-02-18T08:30:56;12.05;;;1.80;;
49051;SDS011;34866;48.670;18.260;2023-02-18T08:33:27;8.90;;;1.83;;
49051;SDS011;34866;48.670;18.260;2023-02-18T08:36:15;3.05;;;1.50;;
49051;SDS011;34866;48.670;18.260;2023-02-18T08:38:44;3.47;;;1.73;;
49051;SDS011;34866;48.670;18.260;2023-02-18T08:41:11;4.13;;;1.73;;
49051;SDS011;34866;48.670;18.260;2023-02-18T08:43:38;3.97;;;1.92;;
49051;SDS011;34866;48.670;18.260;2023-02-18T08:46:16;3.40;;;1.83;;
49051;SDS011;34866;48.670;18.260;2023-02-18T08:48:42;3.85;;;1.85;;
49051;SDS011;34866;48.670;18.260;2023-02-18T08:51:19;6.03;;;2.13;;
49051;SDS011;34866;48.670;18.260;2023-02-18T08:53:47;3.53;;;1.80;;
49051;SDS011;34866;48.670;18.260;2023-02-18T08:56:13;4.30;;;1.63;;
49051;SDS011;34866;48.670;18.260;2023-02-18T08:58:40;4.65;;;1.70;;
49051;SDS011;34866;48.670;18.260;2023-02-18T09:01:07;6.70;;;2.10;;
49051;SDS011;34866;48.670;18.260;2023-02-18T09:03:34;4.53;;;1.95;;
49051;SDS011;34866;48.670;18.260;2023-02-18T09:05:59;4.30;;;1.92;;
49051;SDS011;34866;48.670;18.260;2023-02-18T09:08:26;6.15;;;1.70;;
49051;SDS011;34866;48.670;18.260;2023-02-18T09:10:59;3.30;;;1.45;;
49051;SDS011;34866;48.670;18.260;2023-02-18T09:13:27;4.40;;;2.38;;
49051;SDS011;34866;48.670;18.260;2023-02-18T09:16:03;3.13;;;1.42;;
49051;SDS011;34866;48.670;18.260;2023-02-18T09:18:31;3.22;;;1.60;;
49051;SDS011;34866;48.670;18.260;2023-02-18T09:20:59;7.80;;;2.53;;
49051;SDS011;34866;48.670;18.260;2023-02-18T09:23:26;3.95;;;1.77;;
49051;SDS011;34866;48.670;18.260;2023-02-18T09:25:55;3.03;;;1.52;;
49051;SDS011;34866;48.670;18.260;2023-02-18T09:28:22;3.20;;;1.23;;
49051;SDS011;34866;48.670;18.260;2023-02-18T09:30:51;3.35;;;1.60;;
49051;SDS011;34866;48.670;18.260;2023-02-18T09:33:17;3.95;;;1.70;;
49051;SDS011;34866;48.670;18.260;2023-02-18T09:35:44;3.28;;;1.38;;
49051;SDS011;34866;48.670;18.260;2023-02-18T09:38:15;3.92;;;1.65;;
49051;SDS011;34866;48.670;18.260;2023-02-18T09:40:45;4.70;;;1.50;;
49051;SDS011;34866;48.670;18.260;2023-02-18T09:43:23;4.65;;;2.00;;
49051;SDS011;34866;48.670;18.260;2023-02-18T09:46:01;4.63;;;2.03;;
49051;SDS011;34866;48.670;18.260;2023-02-18T09:48:30;3.28;;;1.40;;
49051;SDS011;34866;48.670;18.260;2023-02-18T09:50:58;6.10;;;2.70;;
49051;SDS011;34866;48.670;18.260;2023-02-18T09:53:24;6.05;;;2.10;;
49051;SDS011;34866;48.670;18.260;2023-02-18T09:55:51;9.68;;;2.33;;
49051;SDS011;34866;48.670;18.260;2023-02-18T09:58:22;7.43;;;2.08;;
49051;SDS011;34866;48.670;18.260;2023-02-18T10:01:03;5.63;;;2.50;;
49051;SDS011;34866;48.670;18.260;2023-02-18T10:03:28;5.20;;;2.33;;
49051;SDS011;34866;48.670;18.260;2023-02-18T10:06:05;6.47;;;2.22;;
49051;SDS011;34866;48.670;18.260;2023-02-18T10:08:51;5.68;;;2.03;;
49051;SDS011;34866;48.670;18.260;2023-02-18T10:11:34;4.95;;;2.17;;
49051;SDS011;34866;48.670;18.260;2023-02-18T10:14:05;6.57;;;2.60;;
49051;SDS011;34866;48.670;18.260;2023-02-18T10:16:35;6.80;;;3.13;;
49051;SDS011;34866;48.670;18.260;2023-02-18T10:25:18;4.22;;;1.98;;
49051;SDS011;34866;48.670;18.260;2023-02-18T10:51:18;7.07;;;2.40;;
49051;SDS011;34866;48.670;18.260;2023-02-18T11:02:35;10.13;;;3.20;;
49051;SDS011;34866;48.670;18.260;2023-02-18T11:05:11;8.15;;;3.63;;
49051;SDS011;34866;48.670;18.260;2023-02-18T11:07:55;9.52;;;4.10;;
49051;SDS011;34866;48.670;18.260;2023-02-18T11:10:28;11.35;;;4.35;;
49051;SDS011;34866;48.670;18.260;2023-02-18T11:13:07;23.80;;;13.13;;
49051;SDS011;34866;48.670;18.260;2023-02-18T11:15:52;10.02;;;3.95;;
49051;SDS011;34866;48.670;18.260;2023-02-18T11:18:45;9.73;;;4.38;;
49051;SDS011;34866;48.670;18.260;2023-02-18T11:21:29;11.38;;;4.18;;
49051;SDS011;34866;48.670;18.260;2023-02-18T11:24:09;12.30;;;4.55;;
49051;SDS011;34866;48.670;18.260;2023-02-18T11:26:42;13.85;;;7.40;;
49051;SDS011;34866;48.670;18.260;2023-02-18T11:29:21;10.15;;;4.85;;
49051;SDS011;34866;48.670;18.260;2023-02-18T11:31:50;16.33;;;7.03;;
49051;SDS011;34866;48.670;18.260;2023-02-18T11:34:26;17.92;;;7.55;;
49051;SDS011;34866;48.670;18.260;2023-02-18T11:37:25;7.28;;;2.80;;
49051;SDS011;34866;48.670;18.260;2023-02-18T11:39:51;19.90;;;7.30;;
49051;SDS011;34866;48.670;18.260;2023-02-18T11:43:17;6.88;;;2.75;;
49051;SDS011;34866;48.670;18.260;2023-02-18T11:45:46;12.63;;;5.35;;
49051;SDS011;34866;48.670;18.260;2023-02-18T11:48:16;5.57;;;2.30;;
49051;SDS011;34866;48.670;18.260;2023-02-18T11:50:51;18.85;;;7.32;;
49051;SDS011;34866;48.670;18.260;2023-02-18T11:54:27;31.65;;;13.15;;
49051;SDS011;34866;48.670;18.260;2023-02-18T11:57:02;26.40;;;10.90;;
49051;SDS011;34866;48.670;18.260;2023-02-18T11:59:38;9.32;;;4.30;;
49051;SDS011;34866;48.670;18.260;2023-02-18T12:05:29;4.50;;;1.95;;
49051;SDS011;34866;48.670;18.260;2023-02-18T12:08:09;4.35;;;2.10;;
49051;SDS011;34866;48.670;18.260;2023-02-18T12:11:01;10.80;;;3.60;;
49051;SDS011;34866;48.670;18.260;2023-02-18T12:13:35;10.02;;;3.33;;
49051;SDS011;34866;48.670;18.260;2023-02-18T12:16:24;6.05;;;3.15;;
49051;SDS011;34866;48.670;18.260;2023-02-18T12:19:53;10.32;;;4.95;;
49051;SDS011;34866;48.670;18.260;2023-02-18T12:19:58;10.32;;;4.95;;
49051;SDS011;34866;48.670;18.260;2023-02-18T12:26:35;10.82;;;4.75;;
49051;SDS011;34866;48.670;18.260;2023-02-18T13:04:35;10.73;;;6.18;;
49051;SDS011;34866;48.670;18.260;2023-02-18T13:12:37;10.85;;;3.97;;
49051;SDS011;34866;48.670;18.260;2023-02-18T13:15:22;9.85;;;4.68;;
49051;SDS011;34866;48.670;18.260;2023-02-18T13:18:02;8.30;;;3.80;;
49051;SDS011;34866;48.670;18.260;2023-02-18T13:20:37;9.20;;;3.85;;
49051;SDS011;34866;48.670;18.260;2023-02-18T13:23:19;11.57;;;4.97;;
49051;SDS011;34866;48.670;18.260;2023-02-18T13:25:48;8.43;;;4.45;;
49051;SDS011;34866;48.670;18.260;2023-02-18T13:28:27;11.10;;;3.90;;
49051;SDS011;34866;48.670;18.260;2023-02-18T13:39:08;15.63;;;7.75;;
49051;SDS011;34866;48.670;18.260;2023-02-18T13:41:44;13.30;;;7.50;;
49051;SDS011;34866;48.670;18.260;2023-02-18T13:46:53;10.38;;;5.85;;
49051;SDS011;34866;48.670;18.260;2023-02-18T13:49:21;12.35;;;6.85;;
49051;SDS011;34866;48.670;18.260;2023-02-18T13:51:50;11.77;;;7.07;;
49051;SDS011;34866;48.670;18.260;2023-02-18T13:54:31;14.73;;;6.88;;
49051;SDS011;34866;48.670;18.260;2023-02-18T13:57:14;17.88;;;7.63;;
49051;SDS011;34866;48.670;18.260;2023-02-18T13:59:53;25.40;;;12.00;;
49051;SDS011;34866;48.670;18.260;2023-02-18T14:04:49;24.63;;;10.20;;
49051;SDS011;34866;48.670;18.260;2023-02-18T14:07:22;22.08;;;10.50;;
49051;SDS011;34866;48.670;18.260;2023-02-18T14:09:58;18.25;;;9.05;;
49051;SDS011;34866;48.670;18.260;2023-02-18T14:15:00;14.38;;;6.85;;
49051;SDS011;34866;48.670;18.260;2023-02-18T14:17:34;11.20;;;6.78;;
49051;SDS011;34866;48.670;18.260;2023-02-18T14:22:31;19.73;;;10.70;;
49051;SDS011;34866;48.670;18.260;2023-02-18T14:27:49;19.17;;;8.95;;
49051;SDS011;34866;48.670;18.260;2023-02-18T14:32:58;22.48;;;11.02;;
49051;SDS011;34866;48.670;18.260;2023-02-18T14:35:36;18.75;;;10.30;;
49051;SDS011;34866;48.670;18.260;2023-02-18T14:43:47;13.70;;;7.38;;
49051;SDS011;34866;48.670;18.260;2023-02-18T14:46:47;15.60;;;7.82;;
49051;SDS011;34866;48.670;18.260;2023-02-18T14:52:11;17.25;;;9.68;;
49051;SDS011;34866;48.670;18.260;2023-02-18T14:54:46;26.90;;;10.20;;
49051;SDS011;34866;48.670;18.260;2023-02-18T14:57:14;20.42;;;9.32;;
49051;SDS011;34866;48.670;18.260;2023-02-18T14:59:45;19.08;;;8.23;;
49051;SDS011;34866;48.670;18.260;2023-02-18T15:02:19;14.18;;;7.03;;
49051;SDS011;34866;48.670;18.260;2023-02-18T15:04:47;15.05;;;6.65;;
49051;SDS011;34866;48.670;18.260;2023-02-18T15:07:17;12.50;;;6.63;;
49051;SDS011;34866;48.670;18.260;2023-02-18T15:09:45;17.30;;;7.93;;
49051;SDS011;34866;48.670;18.260;2023-02-18T15:12:15;15.90;;;7.50;;
49051;SDS011;34866;48.670;18.260;2023-02-18T15:14:44;9.93;;;5.93;;
49051;SDS011;34866;48.670;18.260;2023-02-18T15:17:13;10.60;;;5.68;;
49051;SDS011;34866;48.670;18.260;2023-02-18T15:19:42;10.45;;;5.53;;
49051;SDS011;34866;48.670;18.260;2023-02-18T15:22:24;9.95;;;4.85;;
49051;SDS011;34866;48.670;18.260;2023-02-18T15:24:54;8.68;;;4.70;;
49051;SDS011;34866;48.670;18.260;2023-02-18T15:27:21;5.72;;;3.17;;
49051;SDS011;34866;48.670;18.260;2023-02-18T15:29:55;7.53;;;3.70;;
49051;SDS011;34866;48.670;18.260;2023-02-18T15:32:36;6.30;;;3.63;;
49051;SDS011;34866;48.670;18.260;2023-02-18T15:35:11;7.15;;;3.30;;
49051;SDS011;34866;48.670;18.260;2023-02-18T15:37:42;8.10;;;2.40;;
49051;SDS011;34866;48.670;18.260;2023-02-18T15:40:15;9.43;;;2.20;;
49051;SDS011;34866;48.670;18.260;2023-02-18T15:42:42;3.65;;;1.80;;
49051;SDS011;34866;48.670;18.260;2023-02-18T15:48:03;5.50;;;2.80;;
49051;SDS011;34866;48.670;18.260;2023-02-18T15:50:31;3.42;;;1.58;;
49051;SDS011;34866;48.670;18.260;2023-02-18T15:53:03;4.18;;;1.67;;
49051;SDS011;34866;48.670;18.260;2023-02-18T15:55:32;3.92;;;1.92;;
49051;SDS011;34866;48.670;18.260;2023-02-18T15:58:00;4.25;;;2.00;;
49051;SDS011;34866;48.670;18.260;2023-02-18T16:00:31;6.78;;;3.35;;
49051;SDS011;34866;48.670;18.260;2023-02-18T16:03:03;5.00;;;2.38;;
49051;SDS011;34866;48.670;18.260;2023-02-18T16:05:35;6.10;;;3.17;;
49051;SDS011;34866;48.670;18.260;2023-02-18T16:08:05;4.20;;;1.80;;
49051;SDS011;34866;48.670;18.260;2023-02-18T16:10:42;4.50;;;2.15;;
49051;SDS011;34866;48.670;18.260;2023-02-18T16:13:10;5.43;;;2.60;;
49051;SDS011;34866;48.670;18.260;2023-02-18T16:15:39;5.07;;;2.13;;
49051;SDS011;34866;48.670;18.260;2023-02-18T16:18:23;6.40;;;2.58;;
49051;SDS011;34866;48.670;18.260;2023-02-18T16:21:06;4.28;;;2.10;;
49051;SDS011;34866;48.670;18.260;2023-02-18T16:23:53;6.82;;;2.90;;
49051;SDS011;34866;48.670;18.260;2023-02-18T16:26:28;5.22;;;2.95;;
49051;SDS011;34866;48.670;18.260;2023-02-18T16:29:09;8.82;;;4.10;;
49051;SDS011;34866;48.670;18.260;2023-02-18T16:31:37;14.45;;;6.53;;
49051;SDS011;34866;48.670;18.260;2023-02-18T16:34:03;25.70;;;10.38;;
49051;SDS011;34866;48.670;18.260;2023-02-18T16:36:29;12.65;;;7.15;;
49051;SDS011;34866;48.670;18.260;2023-02-18T16:38:56;14.10;;;7.13;;
49051;SDS011;34866;48.670;18.260;2023-02-18T16:41:23;13.20;;;7.13;;
49051;SDS011;34866;48.670;18.260;2023-02-18T16:43:49;14.90;;;7.10;;
49051;SDS011;34866;48.670;18.260;2023-02-18T16:46:18;18.85;;;9.40;;
49051;SDS011;34866;48.670;18.260;2023-02-18T16:48:51;14.15;;;8.10;;
49051;SDS011;34866;48.670;18.260;2023-02-18T16:51:25;7.43;;;4.03;;
49051;SDS011;34866;48.670;18.260;2023-02-18T16:53:58;20.02;;;8.70;;
49051;SDS011;34866;48.670;18.260;2023-02-18T16:56:25;10.02;;;4.10;;
49051;SDS011;34866;48.670;18.260;2023-02-18T16:58:54;17.27;;;9.57;;
49051;SDS011;34866;48.670;18.260;2023-02-18T17:04:14;8.07;;;4.13;;
49051;SDS011;34866;48.670;18.260;2023-02-18T17:06:42;15.80;;;5.13;;
49051;SDS011;34866;48.670;18.260;2023-02-18T17:09:16;20.63;;;10.15;;
49051;SDS011;34866;48.670;18.260;2023-02-18T17:11:44;21.83;;;9.80;;
49051;SDS011;34866;48.670;18.260;2023-02-18T17:14:15;21.00;;;8.32;;
49051;SDS011;34866;48.670;18.260;2023-02-18T17:16:43;16.27;;;6.80;;
49051;SDS011;34866;48.670;18.260;2023-02-18T17:19:09;20.58;;;7.72;;
49051;SDS011;34866;48.670;18.260;2023-02-18T17:21:34;9.45;;;5.00;;
49051;SDS011;34866;48.670;18.260;2023-02-18T17:24:00;12.50;;;5.80;;
49051;SDS011;34866;48.670;18.260;2023-02-18T17:26:27;16.67;;;6.32;;
49051;SDS011;34866;48.670;18.260;2023-02-18T17:28:54;11.82;;;4.38;;
49051;SDS011;34866;48.670;18.260;2023-02-18T17:31:28;10.88;;;4.47;;
49051;SDS011;34866;48.670;18.260;2023-02-18T17:33:58;14.10;;;5.20;;
49051;SDS011;34866;48.670;18.260;2023-02-18T17:36:27;14.50;;;4.88;;
49051;SDS011;34866;48.670;18.260;2023-02-18T17:38:53;16.13;;;6.38;;
49051;SDS011;34866;48.670;18.260;2023-02-18T17:41:18;17.30;;;6.13;;
49051;SDS011;34866;48.670;18.260;2023-02-18T17:43:44;16.35;;;6.25;;
49051;SDS011;34866;48.670;18.260;2023-02-18T17:46:10;10.20;;;4.35;;
49051;SDS011;34866;48.670;18.260;2023-02-18T17:48:38;14.23;;;5.45;;